Portland, Oregon
Current Conditions -  °F | °C
As of 2:53 PM on Saturday 25 Oct 2014 (Local Time) from KPDX Reporting Station
Overcast Overcast  
Wind Chill: 18°   Ceiling: 5500
Heat Index: 18°   Visibility: 10mi
Dew Point: 11°   Wind: 17mph
Humidity: 65%   Direction: 180°S
Pressure: 29.39"   Gusts: 38mph
Location:  45.51°N, 122.67°W
Report Text: KPDX 252153Z 18015G33KT 10SM SCT035 BKN055 OVC070 18/11 A2939 RMK AO2 RAB26E35 SLP952 PK WND 1634/2057 P0000 T01780111
Loading
Personal Weather Stations






























Interactive Weather Map New forecast layout! Learn more

10-Day Weather Forecast

Advertisements
Track Severe Weather on mobile